< < Back
Terminal Aerodrome Forecast


Current Version              Previous Versions:   1  2  3  4  5  6  7  8  9  

Terminal Aerodrome Forecast

502
FTUS44 KOHX 091947 AAA
TAFBNA
TAF AMD
KBNA 091947Z 0920/1018 31011G18KT 6SM -SN FEW015 BKN035 OVC040
      TEMPO 0920/0922 2SM -SN OVC015
     FM100200 31010KT 6SM -SN OVC035=



Latest METAR

293
SAUS70 KWBC 100400 RRE
MTRBNA
METAR KBNA 100353Z 33008KT 8SM -SN FEW028 OVC048 M06/M12 A3011 RMK AO2
SLP202 P0000 T10561117


USA.gov is the U.S. government's official web portal to all federal, state and local government web resources and services.